Time;durP1;ratioP1;P1;durP2;ratioP2;P2;SDS_P1;SDS_P2;PMS_P1;PMS_P2;Temp;Humidity;BMP_temperature;BMP_pressure;BME280_temperature;BME280_humidity;BME280_pressure;Samples;Min_cycle;Max_cycle;Signal;HPM_P1;HPM_P2
2023/06/13 00:00:33;;;;;;;5.75;3.72;;;24.80;43.40;;;;;;5073134;28;20049;-69
2023/06/13 00:02:59;;;;;;;6.25;3.50;;;24.70;43.30;;;;;;5073020;28;20037;-68
2023/06/13 00:05:25;;;;;;;5.47;3.38;;;24.70;43.20;;;;;;5070577;28;20045;-68
2023/06/13 00:07:51;;;;;;;5.55;3.35;;;24.70;43.90;;;;;;5072807;28;20082;-68
2023/06/13 00:10:16;;;;;;;6.00;3.47;;;24.70;43.00;;;;;;5072769;28;20211;-69
2023/06/13 00:12:44;;;;;;;6.00;3.63;;;24.70;43.10;;;;;;5072105;28;20086;-69
2023/06/13 00:15:11;;;;;;;6.60;3.67;;;24.70;43.00;;;;;;5071391;28;20051;-69
2023/06/13 00:17:38;;;;;;;5.17;3.47;;;24.70;43.00;;;;;;5071328;28;20037;-69
2023/06/13 00:20:05;;;;;;;6.22;3.70;;;24.70;42.90;;;;;;5070574;28;20066;-68
2023/06/13 00:22:30;;;;;;;5.80;3.70;;;24.70;43.00;;;;;;5071266;28;20413;-69
2023/06/13 00:24:56;;;;;;;6.05;3.53;;;24.70;43.10;;;;;;5072733;28;20551;-69
2023/06/13 00:27:22;;;;;;;8.95;3.75;;;24.70;43.10;;;;;;5070371;28;20397;-69
2023/06/13 00:29:47;;;;;;;6.28;3.78;;;24.70;43.00;;;;;;5072414;28;20048;-69
2023/06/13 00:32:13;;;;;;;5.70;3.75;;;24.70;43.00;;;;;;5063544;28;20041;-69
2023/06/13 00:34:39;;;;;;;6.82;4.00;;;24.60;43.00;;;;;;5071232;28;20041;-69
2023/06/13 00:37:05;;;;;;;7.40;4.05;;;24.70;42.90;;;;;;5072727;28;20044;-68
2023/06/13 00:39:30;;;;;;;5.93;3.70;;;24.60;42.90;;;;;;5071799;28;20093;-69
2023/06/13 00:41:56;;;;;;;6.72;4.13;;;24.70;42.90;;;;;;5072518;28;20505;-68
2023/06/13 00:44:21;;;;;;;7.82;4.38;;;24.60;42.80;;;;;;5069398;28;20052;-69
2023/06/13 00:46:47;;;;;;;6.45;3.92;;;24.60;42.80;;;;;;5071489;28;20056;-69
2023/06/13 00:49:15;;;;;;;7.05;4.28;;;24.60;42.80;;;;;;5070660;28;20037;-69
2023/06/13 00:51:41;;;;;;;6.93;4.03;;;24.60;42.80;;;;;;5070895;28;20495;-69
2023/06/13 00:54:06;;;;;;;7.65;4.55;;;24.60;42.80;;;;;;5071059;28;20051;-70
2023/06/13 00:56:33;;;;;;;6.70;4.30;;;24.60;42.70;;;;;;5070248;28;20044;-69
2023/06/13 00:58:59;;;;;;;6.63;4.60;;;24.60;42.80;;;;;;5085683;28;20040;-70
2023/06/13 01:01:27;;;;;;;8.02;4.18;;;24.60;42.70;;;;;;5090312;28;20205;-70
2023/06/13 01:03:53;;;;;;;7.68;4.70;;;24.60;42.70;;;;;;5077894;28;20063;-69
2023/06/13 01:06:19;;;;;;;6.00;4.63;;;24.60;42.70;;;;;;5068419;28;20049;-69
2023/06/13 01:08:44;;;;;;;9.63;4.57;;;24.60;42.60;;;;;;5061962;28;20048;-69
2023/06/13 01:11:20;;;;;;;6.70;4.40;;;24.50;42.50;;;;;;5072003;28;20391;-70
2023/06/13 01:13:57;;;;;;;7.43;4.43;;;24.60;42.50;;;;;;5053896;28;20120;-69
2023/06/13 01:16:33;;;;;;;8.57;4.88;;;24.50;42.50;;;;;;5069683;28;20095;-69
2023/06/13 01:18:59;;;;;;;6.18;4.43;;;24.50;42.40;;;;;;5054661;28;20051;-70
2023/06/13 01:21:24;;;;;;;8.30;5.47;;;24.50;42.40;;;;;;5069776;28;20115;-69
2023/06/13 01:24:19;;;;;;;7.63;4.35;;;24.50;42.40;;;;;;5070540;28;20476;-69
2023/06/13 01:26:52;;;;;;;5.70;4.18;;;24.50;42.40;;;;;;5071166;28;20040;-69
2023/06/13 01:29:18;;;;;;;6.63;4.50;;;24.50;42.50;;;;;;5070533;28;20056;-70
2023/06/13 01:31:45;;;;;;;8.30;4.88;;;24.50;42.40;;;;;;5071951;28;20044;-69
2023/06/13 01:34:12;;;;;;;7.55;4.63;;;24.50;42.40;;;;;;5050153;28;20488;-69
2023/06/13 01:36:37;;;;;;;10.20;5.20;;;24.50;42.30;;;;;;5057761;28;20056;-69
2023/06/13 01:39:03;;;;;;;8.07;5.15;;;24.50;42.30;;;;;;5070579;28;20036;-69
2023/06/13 01:41:28;;;;;;;8.90;4.55;;;24.50;42.40;;;;;;5071715;28;20508;-69
2023/06/13 01:43:54;;;;;;;6.68;4.38;;;24.50;42.30;;;;;;5070914;28;20036;-69
2023/06/13 01:46:29;;;;;;;11.60;5.40;;;24.50;42.30;;;;;;5070152;28;20068;-69
2023/06/13 01:48:59;;;;;;;8.65;5.15;;;24.50;42.30;;;;;;5071543;28;20047;-69
2023/06/13 01:51:31;;;;;;;6.32;4.88;;;24.50;42.30;;;;;;5069293;28;20080;-69
2023/06/13 01:54:01;;;;;;;7.97;5.00;;;24.50;42.30;;;;;;5054098;28;20516;-69
2023/06/13 01:56:29;;;;;;;9.35;5.15;;;24.50;42.30;;;;;;5069355;28;20059;-70
2023/06/13 01:58:56;;;;;;;8.55;5.35;;;24.40;42.30;;;;;;5070179;28;20522;-68
2023/06/13 02:01:21;;;;;;;7.70;5.07;;;24.40;42.40;;;;;;5061869;28;20040;-69
2023/06/13 02:03:47;;;;;;;7.22;4.90;;;24.50;42.30;;;;;;5056711;28;20050;-69
2023/06/13 02:06:13;;;;;;;7.70;5.13;;;24.40;42.20;;;;;;5070384;28;20086;-69
2023/06/13 02:08:38;;;;;;;7.63;4.80;;;24.40;42.20;;;;;;5073740;28;20400;-69
2023/06/13 02:11:04;;;;;;;6.05;4.53;;;24.40;42.20;;;;;;5074546;28;20086;-69
2023/06/13 02:13:29;;;;;;;6.05;4.88;;;24.40;42.20;;;;;;5074767;28;20033;-69
2023/06/13 02:15:55;;;;;;;7.25;4.70;;;24.40;42.20;;;;;;5074962;28;20082;-69
2023/06/13 02:18:20;;;;;;;8.20;5.00;;;24.40;42.20;;;;;;5073800;28;20033;-69
2023/06/13 02:20:46;;;;;;;9.27;4.63;;;24.40;42.20;;;;;;5075244;28;20075;-68
2023/06/13 02:23:12;;;;;;;7.03;4.68;;;24.40;42.20;;;;;;5073137;28;20037;-69
2023/06/13 02:25:38;;;;;;;7.93;4.38;;;24.30;42.20;;;;;;5074341;28;20086;-69
2023/06/13 02:28:03;;;;;;;6.97;4.70;;;24.40;42.20;;;;;;5074554;28;20058;-69
2023/06/13 02:30:29;;;;;;;7.75;4.60;;;24.30;42.20;;;;;;5074879;28;20074;-68
2023/06/13 02:32:54;;;;;;;6.72;4.65;;;24.30;42.20;;;;;;5066526;28;20051;-68
2023/06/13 02:35:23;;;;;;;7.18;4.75;;;24.40;42.20;;;;;;5052875;28;20048;-69
2023/06/13 02:37:54;;;;;;;6.63;4.63;;;24.30;42.20;;;;;;5054888;28;20045;-68
2023/06/13 02:40:20;;;;;;;6.32;4.70;;;24.30;42.20;;;;;;5073442;28;20040;-68
2023/06/13 02:42:47;;;;;;;7.18;4.78;;;24.30;42.20;;;;;;5073504;28;20052;-68
2023/06/13 02:45:13;;;;;;;9.05;5.03;;;24.30;42.20;;;;;;5072840;28;20487;-69
2023/06/13 02:47:39;;;;;;;8.57;4.35;;;24.30;42.20;;;;;;5073978;28;20055;-68
2023/06/13 02:50:04;;;;;;;8.25;4.72;;;24.30;42.20;;;;;;5073927;28;20044;-68
2023/06/13 02:52:31;;;;;;;7.22;5.00;;;24.30;42.20;;;;;;5074386;28;20084;-68
2023/06/13 02:54:56;;;;;;;6.85;4.35;;;24.30;42.20;;;;;;5073687;28;20114;-68
2023/06/13 02:57:22;;;;;;;6.47;4.35;;;24.30;42.20;;;;;;5074248;28;20037;-68
2023/06/13 02:59:48;;;;;;;9.48;4.25;;;24.20;42.20;;;;;;5072186;28;20033;-68
2023/06/13 03:02:16;;;;;;;5.97;4.22;;;24.30;42.20;;;;;;5072726;28;20052;-68
2023/06/13 03:04:41;;;;;;;;;;;24.20;42.10;;;;;;5082734;28;20118;-68
2023/06/13 03:07:10;;;;;;;6.35;4.03;;;24.20;42.30;;;;;;5092299;28;20047;-68
2023/06/13 03:09:35;;;;;;;8.38;4.82;;;24.20;42.20;;;;;;5094010;28;20043;-68
2023/06/13 03:12:02;;;;;;;7.25;4.50;;;24.20;42.20;;;;;;5094480;28;20048;-68
2023/06/13 03:14:28;;;;;;;6.07;3.97;;;24.20;42.20;;;;;;5082017;28;20098;-68
2023/06/13 03:16:55;;;;;;;7.50;4.90;;;24.20;42.20;;;;;;5074002;28;20040;-68
2023/06/13 03:19:21;;;;;;;5.68;4.40;;;24.20;42.20;;;;;;5072868;28;20052;-68
2023/06/13 03:21:47;;;;;;;8.75;4.55;;;24.20;42.20;;;;;;5073379;28;20049;-68
2023/06/13 03:24:14;;;;;;;5.88;3.90;;;24.20;42.20;;;;;;5072321;28;20040;-68
2023/06/13 03:26:39;;;;;;;6.55;4.35;;;24.20;42.20;;;;;;5073994;28;20041;-69
2023/06/13 03:29:06;;;;;;;7.00;4.40;;;24.20;42.30;;;;;;5072413;28;20060;-68
2023/06/13 03:31:31;;;;;;;6.93;4.35;;;24.20;42.20;;;;;;5068050;28;20102;-69
2023/06/13 03:33:57;;;;;;;6.82;4.40;;;24.20;42.20;;;;;;5071392;28;20076;-69
2023/06/13 03:36:22;;;;;;;7.55;4.22;;;24.20;42.30;;;;;;5072520;28;20051;-68
2023/06/13 03:38:48;;;;;;;7.57;4.18;;;24.20;42.30;;;;;;5073496;28;20043;-68
2023/06/13 03:41:13;;;;;;;6.68;4.30;;;24.20;42.30;;;;;;5073244;28;20040;-68
2023/06/13 03:43:40;;;;;;;6.90;3.95;;;24.10;42.20;;;;;;5072587;28;20059;-68
2023/06/13 03:46:05;;;;;;;6.00;4.35;;;24.10;42.20;;;;;;5073184;28;20049;-69
2023/06/13 03:48:31;;;;;;;6.03;4.22;;;24.10;42.20;;;;;;5072071;28;20070;-69
2023/06/13 03:50:57;;;;;;;9.60;4.28;;;24.10;42.20;;;;;;5071301;28;20079;-69
2023/06/13 03:53:22;;;;;;;6.57;4.30;;;24.10;42.20;;;;;;5072974;28;20110;-68
2023/06/13 03:55:48;;;;;;;5.28;3.67;;;24.10;42.30;;;;;;5073117;28;20044;-69
2023/06/13 03:58:15;;;;;;;7.07;3.90;;;24.10;42.30;;;;;;5071962;28;20043;-68
2023/06/13 04:00:41;;;;;;;6.05;4.10;;;24.10;42.30;;;;;;5072980;28;20048;-68
2023/06/13 04:03:08;;;;;;;5.18;3.63;;;24.10;42.40;;;;;;5070288;28;20044;-69
2023/06/13 04:05:34;;;;;;;8.02;4.60;;;24.10;42.40;;;;;;5071426;28;20377;-68
2023/06/13 04:08:00;;;;;;;7.10;4.00;;;24.10;42.50;;;;;;5072859;28;20484;-68
2023/06/13 04:10:25;;;;;;;6.07;3.65;;;24.10;42.40;;;;;;5070803;28;20048;-68
2023/06/13 04:12:51;;;;;;;7.63;4.20;;;24.10;42.50;;;;;;5072852;28;20044;-68
2023/06/13 04:15:16;;;;;;;7.20;3.97;;;24.00;42.40;;;;;;5082455;28;20479;-68
2023/06/13 04:17:42;;;;;;;6.63;3.85;;;24.10;42.50;;;;;;5093118;28;20498;-68
2023/06/13 04:20:09;;;;;;;6.63;3.65;;;24.00;42.50;;;;;;5078407;28;20037;-68
2023/06/13 04:22:35;;;;;;;5.60;3.60;;;24.10;42.50;;;;;;5073336;28;20044;-68
2023/06/13 04:25:01;;;;;;;6.60;4.15;;;24.10;42.60;;;;;;5071888;28;20040;-68
2023/06/13 04:27:29;;;;;;;6.90;3.78;;;24.00;42.50;;;;;;5072377;28;20472;-68
2023/06/13 04:29:56;;;;;;;5.85;3.78;;;24.00;42.60;;;;;;5072503;28;20040;-68
2023/06/13 04:32:23;;;;;;;6.75;3.90;;;24.00;42.60;;;;;;5063136;28;20060;-68
2023/06/13 04:34:55;;;;;;;6.57;3.90;;;24.10;42.70;;;;;;5071465;28;20041;-68
2023/06/13 04:37:23;;;;;;;5.57;4.10;;;24.10;42.80;;;;;;5072143;28;20514;-68
2023/06/13 04:39:50;;;;;;;5.88;4.07;;;24.10;42.80;;;;;;5070476;28;20041;-68
2023/06/13 04:42:21;;;;;;;7.10;4.20;;;24.00;42.80;;;;;;5070766;28;20052;-68
2023/06/13 04:44:48;;;;;;;6.82;3.75;;;24.10;42.90;;;;;;5071073;28;20036;-68
2023/06/13 04:47:13;;;;;;;6.32;3.85;;;24.10;42.80;;;;;;5078764;28;20051;-68
2023/06/13 04:49:40;;;;;;;5.45;3.75;;;24.10;42.80;;;;;;5085130;28;20091;-69
2023/06/13 04:52:06;;;;;;;6.45;3.58;;;24.10;42.70;;;;;;5084754;28;20086;-69
2023/06/13 04:54:33;;;;;;;6.53;4.03;;;24.10;42.70;;;;;;5085934;28;20049;-68
2023/06/13 04:56:59;;;;;;;5.65;3.80;;;24.10;42.60;;;;;;5070538;28;20040;-69
2023/06/13 04:59:25;;;;;;;8.63;4.45;;;24.10;42.50;;;;;;5071608;28;20090;-70
2023/06/13 05:01:51;;;;;;;5.85;3.58;;;24.10;42.90;;;;;;5069322;28;20080;-71
2023/06/13 05:04:16;;;;;;;7.90;4.05;;;24.00;41.20;;;;;;5069083;28;20088;-69
2023/06/13 05:06:42;;;;;;;8.95;4.10;;;23.80;40.30;;;;;;5070303;28;20040;-68
2023/06/13 05:09:08;;;;;;;7.03;3.60;;;23.60;40.10;;;;;;5070626;28;20545;-71
2023/06/13 05:11:34;;;;;;;11.43;3.75;;;23.40;40.30;;;;;;5072329;28;20086;-71
2023/06/13 05:14:00;;;;;;;6.68;3.78;;;23.20;40.30;;;;;;5070994;28;20041;-82
2023/06/13 05:16:29;;;;;;;7.70;4.00;;;23.10;40.50;;;;;;5070852;28;20045;-83
2023/06/13 05:19:00;;;;;;;5.93;3.95;;;23.00;40.60;;;;;;5069163;28;20044;-71
2023/06/13 05:21:29;;;;;;;6.43;3.50;;;22.90;40.80;;;;;;5070708;28;20043;-70
2023/06/13 05:23:54;;;;;;;6.65;4.10;;;22.80;40.90;;;;;;5071806;28;20051;-72
2023/06/13 05:26:20;;;;;;;5.28;3.28;;;22.70;40.90;;;;;;5071469;28;20040;-73
2023/06/13 05:28:46;;;;;;;9.30;3.88;;;22.60;40.90;;;;;;5069873;28;20059;-73
2023/06/13 05:31:12;;;;;;;7.90;3.72;;;22.60;40.90;;;;;;5067657;28;20040;-73
2023/06/13 05:33:38;;;;;;;7.45;3.40;;;22.60;41.00;;;;;;5067612;28;20037;-69
2023/06/13 05:36:04;;;;;;;6.28;3.58;;;22.60;40.90;;;;;;5070467;28;20131;-69
2023/06/13 05:38:29;;;;;;;5.88;3.13;;;22.60;41.00;;;;;;5071829;28;20082;-69
2023/06/13 05:40:55;;;;;;;6.30;3.58;;;22.70;41.00;;;;;;5071963;28;20115;-69
2023/06/13 05:43:20;;;;;;;7.50;3.90;;;22.70;40.90;;;;;;5073363;28;20369;-70
2023/06/13 05:45:47;;;;;;;7.75;3.47;;;22.60;40.80;;;;;;5074234;28;20048;-69
2023/06/13 05:48:13;;;;;;;8.13;3.63;;;22.60;41.00;;;;;;5075229;28;20087;-69
2023/06/13 05:50:38;;;;;;;7.25;3.67;;;22.70;41.20;;;;;;5073670;28;20037;-70
2023/06/13 05:53:04;;;;;;;10.10;3.63;;;22.70;41.20;;;;;;5073875;28;20392;-69
2023/06/13 05:55:30;;;;;;;7.93;3.40;;;22.80;41.20;;;;;;5075248;28;20049;-74
2023/06/13 05:57:55;;;;;;;9.75;3.53;;;22.80;41.10;;;;;;5072850;28;20209;-70
2023/06/13 06:00:22;;;;;;;6.95;3.97;;;22.90;41.10;;;;;;5073464;28;20044;-71
2023/06/13 06:02:47;;;;;;;6.57;3.47;;;22.90;41.10;;;;;;5074816;28;20059;-71
2023/06/13 06:05:15;;;;;;;4.68;3.17;;;23.00;41.10;;;;;;5073364;28;20036;-71
2023/06/13 06:07:42;;;;;;;5.15;2.92;;;23.00;41.00;;;;;;5075620;28;20044;-70
2023/06/13 06:10:08;;;;;;;4.18;3.15;;;23.00;40.90;;;;;;5074154;28;20056;-71
2023/06/13 06:12:34;;;;;;;5.53;3.00;;;23.00;40.90;;;;;;5073765;28;20059;-72
2023/06/13 06:15:00;;;;;;;5.00;3.05;;;23.00;40.80;;;;;;5074576;28;20037;-70
2023/06/13 06:17:26;;;;;;;4.90;3.50;;;23.10;40.70;;;;;;5073067;28;20045;-71
2023/06/13 06:19:51;;;;;;;8.38;3.20;;;23.10;40.60;;;;;;5074867;28;20051;-70
2023/06/13 06:22:20;;;;;;;8.23;3.10;;;23.10;40.50;;;;;;5074301;28;20468;-69
2023/06/13 06:24:46;;;;;;;6.30;3.10;;;23.10;40.50;;;;;;5089861;28;20104;-68
2023/06/13 06:27:12;;;;;;;8.50;3.60;;;23.10;40.50;;;;;;5074204;28;20037;-69
2023/06/13 06:29:38;;;;;;;5.47;2.75;;;23.10;40.50;;;;;;5067584;28;20063;-69
2023/06/13 06:32:05;;;;;;;6.72;3.53;;;23.10;40.60;;;;;;5073826;28;20396;-70
2023/06/13 06:34:31;;;;;;;6.18;2.75;;;23.20;40.70;;;;;;5074710;28;20053;-69
2023/06/13 06:36:56;;;;;;;4.35;2.95;;;23.20;40.60;;;;;;5072980;28;20131;-69
2023/06/13 06:39:22;;;;;;;8.55;3.33;;;23.20;40.60;;;;;;5072191;28;20503;-71
2023/06/13 06:41:48;;;;;;;7.85;3.35;;;23.20;40.60;;;;;;5073109;28;20434;-69
2023/06/13 06:44:13;;;;;;;6.78;3.58;;;23.20;40.60;;;;;;5073413;28;20136;-71
2023/06/13 06:46:39;;;;;;;6.75;3.22;;;23.20;40.60;;;;;;5072976;28;20077;-71
2023/06/13 06:49:04;;;;;;;7.00;3.45;;;23.20;40.60;;;;;;5073274;28;20060;-71
2023/06/13 06:51:30;;;;;;;5.38;3.25;;;23.20;40.50;;;;;;5074979;28;20548;-68
2023/06/13 06:53:56;;;;;;;6.63;3.65;;;23.20;40.60;;;;;;5086539;28;20448;-67
2023/06/13 06:56:22;;;;;;;8.35;3.10;;;23.20;40.60;;;;;;5092956;28;20451;-67
2023/06/13 06:58:48;;;;;;;6.22;3.80;;;23.20;40.60;;;;;;5078939;28;20193;-70
2023/06/13 07:01:18;;;;;;;7.75;3.53;;;23.20;40.70;;;;;;5072120;28;20140;-73
2023/06/13 07:03:44;;;;;;;6.43;3.50;;;23.20;40.70;;;;;;5056678;28;20105;-74
2023/06/13 07:06:11;;;;;;;6.15;3.30;;;23.20;40.70;;;;;;5073514;28;20113;-70
2023/06/13 07:08:37;;;;;;;6.20;3.28;;;23.20;40.60;;;;;;5074402;28;20040;-70
2023/06/13 07:11:02;;;;;;;8.43;3.60;;;23.20;40.70;;;;;;5073466;28;20093;-68
2023/06/13 07:13:28;;;;;;;4.78;3.40;;;23.30;40.90;;;;;;5071990;28;20048;-64
2023/06/13 07:15:53;;;;;;;7.68;4.00;;;23.30;40.80;;;;;;5073085;28;20040;-70
2023/06/13 07:18:19;;;;;;;8.00;3.72;;;23.30;41.10;;;;;;5072134;28;20175;-69
2023/06/13 07:20:45;;;;;;;8.05;3.55;;;23.30;40.80;;;;;;5073489;28;20076;-70
2023/06/13 07:23:11;;;;;;;9.00;3.63;;;23.30;40.90;;;;;;5073772;28;20041;-69
2023/06/13 07:25:37;;;;;;;10.43;3.70;;;23.30;40.90;;;;;;5082718;28;20055;-69
2023/06/13 07:28:02;;;;;;;6.70;4.03;;;23.30;41.00;;;;;;5085335;28;20072;-70
2023/06/13 07:30:28;;;;;;;6.80;3.90;;;23.30;41.00;;;;;;5072294;28;20385;-67
2023/06/13 07:32:53;;;;;;;6.80;3.22;;;23.30;41.00;;;;;;5064621;28;20039;-67
2023/06/13 07:35:23;;;;;;;10.23;4.45;;;23.40;41.10;;;;;;5072806;28;20047;-67
2023/06/13 07:37:55;;;;;;;6.07;3.47;;;23.30;41.20;;;;;;5073781;28;20044;-66
2023/06/13 07:40:24;;;;;;;7.30;3.70;;;23.40;41.20;;;;;;5071599;28;20052;-67
2023/06/13 07:42:50;;;;;;;6.28;3.70;;;23.40;41.20;;;;;;5071030;28;20047;-67
2023/06/13 07:45:16;;;;;;;7.07;3.70;;;23.50;41.20;;;;;;5055589;28;20041;-67
2023/06/13 07:47:42;;;;;;;6.00;3.45;;;23.50;41.30;;;;;;5073433;28;20124;-67
2023/06/13 07:50:07;;;;;;;6.15;3.42;;;23.50;41.30;;;;;;5072155;28;20041;-67
2023/06/13 07:52:33;;;;;;;7.47;3.78;;;23.60;41.40;;;;;;5073360;28;20120;-68
2023/06/13 07:54:59;;;;;;;6.30;3.35;;;23.60;41.40;;;;;;5073123;28;20036;-69
2023/06/13 07:57:24;;;;;;;6.78;3.70;;;23.60;41.60;;;;;;5072078;28;20044;-71
2023/06/13 07:59:50;;;;;;;5.65;3.60;;;23.60;41.80;;;;;;5072469;28;20032;-71
2023/06/13 08:02:15;;;;;;;5.10;3.58;;;23.70;42.00;;;;;;5070137;28;20400;-70
2023/06/13 08:04:41;;;;;;;6.47;3.50;;;23.70;42.00;;;;;;5072344;28;20049;-69
2023/06/13 08:07:07;;;;;;;9.02;3.85;;;23.70;42.00;;;;;;5071253;28;20136;-69
2023/06/13 08:09:32;;;;;;;4.80;3.13;;;23.70;42.10;;;;;;5077294;28;20077;-69
2023/06/13 08:11:58;;;;;;;7.38;3.72;;;23.70;42.10;;;;;;5091419;28;20039;-70
2023/06/13 08:14:24;;;;;;;5.32;3.42;;;23.70;42.20;;;;;;5076796;28;20063;-69
2023/06/13 08:16:50;;;;;;;5.15;3.53;;;23.80;42.30;;;;;;5070649;28;20043;-68
2023/06/13 08:19:15;;;;;;;8.85;3.67;;;23.80;42.30;;;;;;5072430;28;20086;-69
2023/06/13 08:21:41;;;;;;;6.25;3.60;;;23.80;42.30;;;;;;5070934;28;20555;-69
2023/06/13 08:24:07;;;;;;;6.82;3.40;;;23.80;42.30;;;;;;5071610;28;20032;-68
2023/06/13 08:26:32;;;;;;;4.95;3.15;;;23.80;42.20;;;;;;5077890;28;20398;-70
2023/06/13 08:29:01;;;;;;;4.65;3.22;;;23.80;42.20;;;;;;5079217;28;20227;-69
2023/06/13 08:31:27;;;;;;;6.63;3.28;;;23.90;42.30;;;;;;5065199;28;20040;-71
2023/06/13 08:33:55;;;;;;;6.63;3.20;;;23.90;42.30;;;;;;5069180;28;20400;-73
2023/06/13 08:36:21;;;;;;;8.30;3.33;;;23.90;42.30;;;;;;5072231;28;20045;-70
2023/06/13 08:38:47;;;;;;;5.72;3.22;;;23.90;42.30;;;;;;5071686;28;20036;-70
2023/06/13 08:41:13;;;;;;;6.00;2.95;;;23.90;42.30;;;;;;5070192;28;20186;-70
2023/06/13 08:43:38;;;;;;;4.80;3.08;;;23.90;42.30;;;;;;5053806;28;20412;-70
2023/06/13 08:46:04;;;;;;;7.57;3.15;;;24.00;42.30;;;;;;5053547;28;20052;-72
2023/06/13 08:48:32;;;;;;;6.53;3.30;;;24.00;42.30;;;;;;5054294;28;20498;-72
2023/06/13 08:50:59;;;;;;;6.13;3.40;;;24.00;42.20;;;;;;5070568;28;20510;-71
2023/06/13 08:53:25;;;;;;;7.70;3.13;;;24.00;42.30;;;;;;5071493;28;20044;-71
2023/06/13 08:55:51;;;;;;;5.35;3.30;;;24.00;42.30;;;;;;5055024;28;20040;-71
2023/06/13 08:58:16;;;;;;;6.90;3.47;;;24.00;42.30;;;;;;5066282;28;20040;-71
2023/06/13 09:00:43;;;;;;;4.18;3.00;;;24.00;42.40;;;;;;5050001;28;20041;-71
2023/06/13 09:03:12;;;;;;;5.82;3.05;;;24.00;42.40;;;;;;5052834;28;20500;-70
2023/06/13 09:05:37;;;;;;;6.30;3.25;;;24.00;42.40;;;;;;5071003;28;20496;-69
2023/06/13 09:08:03;;;;;;;5.22;3.00;;;24.00;42.40;;;;;;5053884;28;20055;-69
2023/06/13 09:10:29;;;;;;;7.20;3.42;;;24.00;42.40;;;;;;5071767;28;20504;-72
2023/06/13 09:12:54;;;;;;;5.80;3.25;;;24.10;42.90;;;;;;5053142;28;20047;-70
2023/06/13 09:15:21;;;;;;;7.22;3.85;;;24.10;43.10;;;;;;5054058;28;20044;-69
2023/06/13 09:17:46;;;;;;;6.07;3.35;;;24.10;43.20;;;;;;5072980;28;20051;-69
2023/06/13 09:20:12;;;;;;;7.45;3.25;;;24.10;43.20;;;;;;5074937;28;20408;-67
2023/06/13 09:22:37;;;;;;;6.57;3.35;;;24.10;43.40;;;;;;5076240;28;20040;-65
2023/06/13 09:25:04;;;;;;;7.82;3.08;;;24.20;43.40;;;;;;5074381;28;20036;-65
2023/06/13 09:27:30;;;;;;;6.95;3.00;;;24.20;43.20;;;;;;5074931;28;20049;-66
2023/06/13 09:29:59;;;;;;;5.30;3.13;;;24.20;42.90;;;;;;5075396;28;20063;-66
2023/06/13 09:32:25;;;;;;;5.78;3.10;;;24.20;42.50;;;;;;5067405;28;20044;-65
2023/06/13 09:34:51;;;;;;;9.45;3.03;;;24.20;42.30;;;;;;5075100;28;20051;-69
2023/06/13 09:37:16;;;;;;;7.70;3.17;;;24.20;42.40;;;;;;5075743;28;20182;-66
2023/06/13 09:39:50;;;;;;;9.02;3.60;;;24.20;42.70;;;;;;5075878;28;20480;-67
2023/06/13 09:42:20;;;;;;;7.95;3.70;;;24.20;42.80;;;;;;5074682;28;20032;-68
2023/06/13 09:44:46;;;;;;;5.20;3.50;;;24.20;42.60;;;;;;5074078;28;20059;-67
2023/06/13 09:47:22;;;;;;;6.50;3.40;;;24.20;42.60;;;;;;5075304;28;20055;-67
2023/06/13 09:49:53;;;;;;;10.65;4.30;;;24.30;42.90;;;;;;5074815;28;20044;-68
2023/06/13 09:52:25;;;;;;;6.18;3.60;;;24.30;43.20;;;;;;5075057;28;20078;-68
2023/06/13 09:54:54;;;;;;;17.02;4.88;;;24.30;43.30;;;;;;5074839;28;20045;-67
2023/06/13 09:57:21;;;;;;;31.75;11.55;;;24.30;44.00;;;;;;5094047;28;20044;-68
2023/06/13 09:59:50;;;;;;;26.70;11.98;;;24.30;44.30;;;;;;5080725;28;20094;-65
2023/06/13 10:02:22;;;;;;;18.90;8.52;;;24.30;44.60;;;;;;5084949;28;20047;-66
2023/06/13 10:04:51;;;;;;;55.65;18.65;;;24.40;45.20;;;;;;5082105;28;20479;-66
2023/06/13 10:07:17;;;;;;;35.67;15.23;;;24.40;45.90;;;;;;5073607;28;20410;-67
2023/06/13 10:09:43;;;;;;;29.75;13.82;;;24.40;46.20;;;;;;5074560;28;20111;-64
2023/06/13 10:12:11;;;;;;;30.92;11.55;;;24.40;46.70;;;;;;5073558;28;20102;-68
2023/06/13 10:14:40;;;;;;;95.65;30.92;;;24.50;46.70;;;;;;5076040;28;20098;-70
2023/06/13 10:17:08;;;;;;;59.38;20.95;;;24.50;47.30;;;;;;5068507;28;20492;-66
2023/06/13 10:19:35;;;;;;;64.00;25.05;;;24.50;48.20;;;;;;5054391;28;20036;-67
2023/06/13 10:22:01;;;;;;;69.85;22.77;;;24.50;48.70;;;;;;5073299;28;20048;-68
2023/06/13 10:24:27;;;;;;;72.93;31.08;;;24.50;49.10;;;;;;5058138;28;20045;-70
2023/06/13 10:26:55;;;;;;;57.22;22.25;;;24.50;49.60;;;;;;5067032;28;20048;-71
2023/06/13 10:29:58;;;;;;;46.35;20.30;;;24.50;49.80;;;;;;5073092;28;20040;-70
2023/06/13 10:32:46;;;;;;;39.03;16.58;;;24.60;49.80;;;;;;5017242;28;20757;-70
2023/06/13 10:35:24;;;;;;;34.00;13.40;;;24.60;49.50;;;;;;5055800;28;20056;-69
2023/06/13 10:37:53;;;;;;;;;;;24.60;49.40;;;;;;5072663;28;20052;-70
2023/06/13 10:40:40;;;;;;;28.27;11.68;;;24.60;49.20;;;;;;5073649;28;19920;-71
2023/06/13 10:43:30;;;;;;;28.52;10.90;;;24.60;49.20;;;;;;5073747;28;20084;-72
2023/06/13 10:45:55;;;;;;;27.02;9.68;;;24.60;49.10;;;;;;5052577;28;20052;-71
2023/06/13 10:48:34;;;;;;;21.00;9.68;;;24.60;48.90;;;;;;5053174;28;20041;-71
2023/06/13 10:51:00;;;;;;;23.33;9.57;;;24.60;49.00;;;;;;5052428;28;20571;-72
2023/06/13 10:53:31;;;;;;;19.27;8.20;;;24.70;48.80;;;;;;5054275;28;20080;-71
2023/06/13 10:56:01;;;;;;;16.83;7.80;;;24.70;48.90;;;;;;5052943;28;20120;-71
2023/06/13 10:58:27;;;;;;;16.58;8.18;;;24.70;48.90;;;;;;5073367;28;20123;-70
2023/06/13 11:00:52;;;;;;;18.58;8.15;;;24.70;48.90;;;;;;5050343;28;20127;-71
2023/06/13 11:03:18;;;;;;;15.75;7.25;;;24.70;48.80;;;;;;5063043;28;20151;-71
2023/06/13 11:05:48;;;;;;;16.33;7.90;;;24.70;48.80;;;;;;5073306;28;20044;-69
2023/06/13 11:08:14;;;;;;;16.27;7.22;;;24.70;48.80;;;;;;5072506;28;20040;-70
2023/06/13 11:10:41;;;;;;;17.05;7.03;;;24.70;48.60;;;;;;5073513;28;20416;-70
2023/06/13 11:13:25;;;;;;;16.52;7.15;;;24.70;48.60;;;;;;5072885;28;20416;-70
2023/06/13 11:15:53;;;;;;;13.23;6.90;;;24.70;48.50;;;;;;5073523;28;20135;-71
2023/06/13 11:18:19;;;;;;;12.88;5.97;;;24.60;48.30;;;;;;5067912;28;20047;-72
2023/06/13 11:20:55;;;;;;;13.13;6.60;;;24.70;48.40;;;;;;5071175;28;20036;-72
2023/06/13 11:23:37;;;;;;;14.07;6.18;;;24.70;48.20;;;;;;5067909;28;20036;-70
2023/06/13 11:26:03;;;;;;;13.70;6.22;;;24.70;48.10;;;;;;5072698;28;20040;-70
2023/06/13 11:28:30;;;;;;;11.90;6.13;;;24.70;48.00;;;;;;5072156;28;20086;-70
2023/06/13 11:30:55;;;;;;;12.27;6.70;;;24.70;47.90;;;;;;5071725;28;20377;-70
2023/06/13 11:33:21;;;;;;;11.10;5.43;;;24.70;47.80;;;;;;5054336;28;20039;-70
2023/06/13 11:35:48;;;;;;;12.40;5.97;;;24.70;47.70;;;;;;5072128;28;20048;-71
2023/06/13 11:38:18;;;;;;;12.77;5.65;;;24.70;48.00;;;;;;5071479;28;20032;-71
2023/06/13 11:40:44;;;;;;;8.55;5.22;;;24.70;47.60;;;;;;5070731;28;20123;-70
2023/06/13 11:43:10;;;;;;;9.50;5.50;;;24.70;47.50;;;;;;5071717;28;20115;-70
2023/06/13 11:45:36;;;;;;;8.40;4.60;;;24.70;47.40;;;;;;5070850;28;20037;-71
2023/06/13 11:48:02;;;;;;;12.95;5.65;;;24.70;47.60;;;;;;5069437;28;20045;-73
2023/06/13 11:50:27;;;;;;;12.57;5.00;;;24.70;48.20;;;;;;5071433;28;20048;-73
2023/06/13 11:53:06;;;;;;;10.35;5.07;;;24.70;48.10;;;;;;5073079;28;20044;-72
2023/06/13 11:55:31;;;;;;;7.70;4.22;;;24.70;48.30;;;;;;5069269;28;20052;-71
2023/06/13 11:57:57;;;;;;;7.07;4.53;;;24.70;48.40;;;;;;5072341;28;20028;-75
2023/06/13 12:00:27;;;;;;;10.30;4.97;;;24.70;48.40;;;;;;5071296;28;20476;-73
2023/06/13 12:02:53;;;;;;;11.23;4.43;;;24.80;48.40;;;;;;5068671;28;20102;-72
2023/06/13 12:05:19;;;;;;;7.43;4.50;;;24.80;48.50;;;;;;5054925;28;20106;-71
2023/06/13 12:07:45;;;;;;;7.07;4.47;;;24.80;48.40;;;;;;5054793;28;20040;-73
2023/06/13 12:10:15;;;;;;;7.63;4.93;;;24.80;48.40;;;;;;5067735;28;20048;-71
2023/06/13 12:12:40;;;;;;;7.43;4.57;;;24.80;48.40;;;;;;5054810;28;20039;-73
2023/06/13 12:15:13;;;;;;;8.27;4.53;;;24.80;48.40;;;;;;5079178;28;20040;-72
2023/06/13 12:18:00;;;;;;;7.47;4.20;;;24.80;48.30;;;;;;5068343;28;20067;-70
2023/06/13 12:20:26;;;;;;;7.53;3.97;;;24.80;48.20;;;;;;5072229;28;20044;-76
2023/06/13 12:22:59;;;;;;;35.72;19.65;;;24.80;48.20;;;;;;5071851;28;20076;-71
2023/06/13 12:25:27;;;;;;;21.77;11.65;;;24.80;48.40;;;;;;5072835;28;20049;-73
2023/06/13 12:27:55;;;;;;;17.25;9.15;;;24.80;48.30;;;;;;5072421;28;20055;-71
2023/06/13 12:30:21;;;;;;;16.60;7.63;;;24.80;48.40;;;;;;5053434;28;20048;-72
2023/06/13 12:32:48;;;;;;;13.27;7.13;;;24.90;48.30;;;;;;5072526;28;20410;-67
2023/06/13 12:35:19;;;;;;;18.23;7.65;;;24.90;48.30;;;;;;5072332;28;20507;-67
2023/06/13 12:37:54;;;;;;;11.55;6.50;;;24.90;49.10;;;;;;5071980;28;20101;-65
2023/06/13 12:40:24;;;;;;;11.48;6.07;;;24.90;48.30;;;;;;5070707;28;20086;-77
2023/06/13 12:42:50;;;;;;;10.18;6.28;;;24.90;48.20;;;;;;5071329;28;20037;-76
2023/06/13 12:45:15;;;;;;;13.98;6.47;;;25.00;48.20;;;;;;5071036;28;20041;-74